Espaço - Ciências - Fenômenos Naturais
Meteógrafos Informações Meteorológicas em tempo real

Aeroporto de Congonhas

Histórico do Tempo
Temperatura atual: 16 graus 60 F    Umidade relativa: 87 %
Velocidade do vento: 09 nós 16 Km/h    Direção: 170 graus S
Ajuste do altímetro ..: 1016 HPA
Visibilidade: Ótima    Tempo presente: Céu Encoberto

Observação
Céu encoberto a600 Pés.

Data Hora BRTTempo°CUmidadePressãoVentoVisib.
22/11 - 20:55   Céu Encoberto 16° 87% 1016 Sul/16 km/h OK
22/11 - 19:55   Céu Encoberto 17° 82% 1015 Sul/18 km/h OK
22/11 - 18:55   Céu Encoberto 17° 82% 1015 Sul/19 km/h OK
22/11 - 17:55   Parcialmente Nublado 18° 77% 1014 Sul/27 km/h OK
22/11 - 16:55   Parcialmente Nublado 19° 77% 1013 Sul/27 km/h OK
22/11 - 15:55   Parcialmente Nublado 20° 77% 1013 Sul/23 km/h OK
22/11 - 14:55   Céu Encoberto 21° 73% 1013 Sul-sudoeste/18 km/h OK
22/11 - 13:55   Parcialmente Nublado 21° 77% 1013 Sul/18 km/h OK
22/11 - 12:55   Parcialmente Nublado 21° 77% 1013 Sul/18 km/h OK
22/11 - 11:55   Parcialmente Nublado 23° 73% ND Sul-sudoeste/14 km/h 9999
22/11 - 10:55   Parcialmente Nublado 22° 78% ND Sudoeste/10 km/h 9999
22/11 - 09:55   Muitas Nuvens 21° 88% 1011 /5 km/h OK
22/11 - 08:55   Muitas Nuvens 21° 88% 1011 /5 km/h OK
22/11 - 07:55   Parcialmente Nublado 21° 88% ND Norte/5 km/h 9999
22/11 - 06:55   Chovendo fraco 20° 88% 1009 Norte-nordeste/9 km/h OK
22/11 - 05:55   Chovendo fraco 20° 88% 1010 Noroeste/5 km/h 8000
22/11 - 04:55   Chovendo fraco 20° 88% 1010 Norte-nordeste/5 km/h 9000
22/11 - 03:55   Chovendo 20° 88% 1010 Sudoeste/9 km/h 2800
22/11 - 02:55   Chovendo fraco 20° 88% 1010 Sul-sudoeste/5 km/h 9999
22/11 - 01:55   Choveu há pouco 21° 88% 1012 Noroeste/9 km/h 9999
22/11 - 00:55   Parcialmente Nublado ND° ND% ND Norte-noroeste/9 km/h 9999
21/11 - 23:55   Chovendo fraco 21° 83% 1013 Leste/1 km/h OK
21/11 - 22:55   Chovendo fraco 21° 83% 1013 Leste/1 km/h OK
21/11 - 21:55   Chovendo fraco 22° 83% ND Norte-nordeste/12 km/h 8000


Apolo11.com - Todos os direitos reservados - 2000 - 2017
Política de Privacidade   |     Termo de Uso e Licenciamento   |  -   Entre em Contato

"O homem é sábio quando procura a sabedoria. Quando pensa que a encontrou é burro." - Talmud